sensor_id;sensor_type;location;lat;lon;timestamp;P1;durP1;ratioP1;P2;durP2;ratioP2
8871;SDS011;4472;52.092;9.820;2022-10-31T00:02:25;10.60;;;5.33;;
8871;SDS011;4472;52.092;9.820;2022-10-31T00:05:12;12.20;;;6.00;;
8871;SDS011;4472;52.092;9.820;2022-10-31T00:07:59;10.33;;;5.33;;
8871;SDS011;4472;52.092;9.820;2022-10-31T00:10:46;10.23;;;5.37;;
8871;SDS011;4472;52.092;9.820;2022-10-31T00:13:34;9.70;;;5.30;;
8871;SDS011;4472;52.092;9.820;2022-10-31T00:16:21;11.73;;;6.13;;
8871;SDS011;4472;52.092;9.820;2022-10-31T00:19:11;11.00;;;5.97;;
8871;SDS011;4472;52.092;9.820;2022-10-31T00:21:58;10.73;;;5.57;;
8871;SDS011;4472;52.092;9.820;2022-10-31T00:24:45;13.83;;;5.73;;
8871;SDS011;4472;52.092;9.820;2022-10-31T00:27:32;10.83;;;5.70;;
8871;SDS011;4472;52.092;9.820;2022-10-31T00:30:19;9.37;;;5.97;;
8871;SDS011;4472;52.092;9.820;2022-10-31T00:33:07;11.67;;;6.03;;
8871;SDS011;4472;52.092;9.820;2022-10-31T00:35:55;11.93;;;6.20;;
8871;SDS011;4472;52.092;9.820;2022-10-31T00:38:43;14.07;;;5.53;;
8871;SDS011;4472;52.092;9.820;2022-10-31T00:41:31;14.00;;;6.50;;
8871;SDS011;4472;52.092;9.820;2022-10-31T00:44:18;11.03;;;6.33;;
8871;SDS011;4472;52.092;9.820;2022-10-31T00:47:06;13.50;;;6.23;;
8871;SDS011;4472;52.092;9.820;2022-10-31T00:49:53;12.00;;;6.20;;
8871;SDS011;4472;52.092;9.820;2022-10-31T00:52:41;12.40;;;6.10;;
8871;SDS011;4472;52.092;9.820;2022-10-31T00:55:29;11.33;;;6.23;;
8871;SDS011;4472;52.092;9.820;2022-10-31T00:58:16;12.77;;;6.77;;
8871;SDS011;4472;52.092;9.820;2022-10-31T01:01:03;14.73;;;5.90;;
8871;SDS011;4472;52.092;9.820;2022-10-31T01:03:51;10.73;;;6.03;;
8871;SDS011;4472;52.092;9.820;2022-10-31T01:06:38;12.07;;;6.67;;
8871;SDS011;4472;52.092;9.820;2022-10-31T01:09:26;10.60;;;6.13;;
8871;SDS011;4472;52.092;9.820;2022-10-31T01:12:14;13.17;;;6.00;;
8871;SDS011;4472;52.092;9.820;2022-10-31T01:15:01;15.63;;;5.80;;
8871;SDS011;4472;52.092;9.820;2022-10-31T01:17:48;8.10;;;5.67;;
8871;SDS011;4472;52.092;9.820;2022-10-31T01:20:36;11.27;;;5.70;;
8871;SDS011;4472;52.092;9.820;2022-10-31T01:23:23;9.53;;;5.83;;
8871;SDS011;4472;52.092;9.820;2022-10-31T01:26:13;8.57;;;5.93;;
8871;SDS011;4472;52.092;9.820;2022-10-31T01:29:04;8.83;;;5.67;;
8871;SDS011;4472;52.092;9.820;2022-10-31T01:31:52;12.47;;;6.63;;
8871;SDS011;4472;52.092;9.820;2022-10-31T01:34:39;11.27;;;6.80;;
8871;SDS011;4472;52.092;9.820;2022-10-31T01:37:26;10.27;;;6.27;;
8871;SDS011;4472;52.092;9.820;2022-10-31T01:40:14;13.33;;;6.10;;
8871;SDS011;4472;52.092;9.820;2022-10-31T01:43:02;9.70;;;5.77;;
8871;SDS011;4472;52.092;9.820;2022-10-31T01:45:50;9.93;;;6.10;;
8871;SDS011;4472;52.092;9.820;2022-10-31T01:48:40;9.53;;;6.40;;
8871;SDS011;4472;52.092;9.820;2022-10-31T01:51:28;9.57;;;6.50;;
8871;SDS011;4472;52.092;9.820;2022-10-31T01:54:19;9.27;;;6.33;;
8871;SDS011;4472;52.092;9.820;2022-10-31T01:57:10;12.90;;;6.23;;
8871;SDS011;4472;52.092;9.820;2022-10-31T02:00:02;11.40;;;6.33;;
8871;SDS011;4472;52.092;9.820;2022-10-31T02:02:51;14.97;;;6.73;;
8871;SDS011;4472;52.092;9.820;2022-10-31T02:05:41;9.60;;;5.87;;
8871;SDS011;4472;52.092;9.820;2022-10-31T02:08:29;14.00;;;6.00;;
8871;SDS011;4472;52.092;9.820;2022-10-31T02:11:18;14.10;;;6.43;;
8871;SDS011;4472;52.092;9.820;2022-10-31T02:14:06;11.50;;;6.60;;
8871;SDS011;4472;52.092;9.820;2022-10-31T02:16:54;15.90;;;6.70;;
8871;SDS011;4472;52.092;9.820;2022-10-31T02:19:45;12.37;;;7.03;;
8871;SDS011;4472;52.092;9.820;2022-10-31T02:22:40;11.77;;;6.80;;
8871;SDS011;4472;52.092;9.820;2022-10-31T02:25:46;10.40;;;6.50;;
8871;SDS011;4472;52.092;9.820;2022-10-31T02:28:58;15.43;;;7.33;;
8871;SDS011;4472;52.092;9.820;2022-10-31T02:32:04;11.30;;;6.63;;
8871;SDS011;4472;52.092;9.820;2022-10-31T02:34:58;12.03;;;7.00;;
8871;SDS011;4472;52.092;9.820;2022-10-31T02:37:52;10.30;;;7.07;;
8871;SDS011;4472;52.092;9.820;2022-10-31T02:40:46;15.03;;;7.13;;
8871;SDS011;4472;52.092;9.820;2022-10-31T02:43:38;12.63;;;6.63;;
8871;SDS011;4472;52.092;9.820;2022-10-31T02:46:32;12.13;;;6.40;;
8871;SDS011;4472;52.092;9.820;2022-10-31T02:49:26;11.23;;;7.13;;
8871;SDS011;4472;52.092;9.820;2022-10-31T02:52:20;10.60;;;7.13;;
8871;SDS011;4472;52.092;9.820;2022-10-31T02:55:09;14.07;;;7.40;;
8871;SDS011;4472;52.092;9.820;2022-10-31T02:57:58;15.17;;;8.10;;
8871;SDS011;4472;52.092;9.820;2022-10-31T03:00:52;15.30;;;9.13;;
8871;SDS011;4472;52.092;9.820;2022-10-31T03:03:59;15.50;;;8.33;;
8871;SDS011;4472;52.092;9.820;2022-10-31T03:07:00;16.33;;;8.70;;
8871;SDS011;4472;52.092;9.820;2022-10-31T03:09:56;15.47;;;8.03;;
8871;SDS011;4472;52.092;9.820;2022-10-31T03:12:50;13.57;;;8.77;;
8871;SDS011;4472;52.092;9.820;2022-10-31T03:15:45;16.93;;;8.27;;
8871;SDS011;4472;52.092;9.820;2022-10-31T03:18:37;13.20;;;8.57;;
8871;SDS011;4472;52.092;9.820;2022-10-31T03:21:27;20.47;;;8.70;;
8871;SDS011;4472;52.092;9.820;2022-10-31T03:24:21;13.90;;;8.93;;
8871;SDS011;4472;52.092;9.820;2022-10-31T03:27:12;12.07;;;8.30;;
8871;SDS011;4472;52.092;9.820;2022-10-31T03:30:05;16.33;;;9.70;;
8871;SDS011;4472;52.092;9.820;2022-10-31T03:32:54;20.37;;;9.53;;
8871;SDS011;4472;52.092;9.820;2022-10-31T03:35:44;14.67;;;9.03;;
8871;SDS011;4472;52.092;9.820;2022-10-31T03:38:33;17.50;;;9.33;;
8871;SDS011;4472;52.092;9.820;2022-10-31T03:41:25;16.20;;;9.10;;
8871;SDS011;4472;52.092;9.820;2022-10-31T03:44:15;15.83;;;9.30;;
8871;SDS011;4472;52.092;9.820;2022-10-31T03:47:05;17.73;;;10.87;;
8871;SDS011;4472;52.092;9.820;2022-10-31T03:49:53;19.53;;;10.23;;
8871;SDS011;4472;52.092;9.820;2022-10-31T03:52:41;19.07;;;10.70;;
8871;SDS011;4472;52.092;9.820;2022-10-31T03:55:34;19.10;;;10.00;;
8871;SDS011;4472;52.092;9.820;2022-10-31T03:58:31;19.17;;;10.10;;
8871;SDS011;4472;52.092;9.820;2022-10-31T04:01:22;22.77;;;11.23;;
8871;SDS011;4472;52.092;9.820;2022-10-31T04:04:10;18.57;;;10.73;;
8871;SDS011;4472;52.092;9.820;2022-10-31T04:06:58;19.63;;;10.40;;
8871;SDS011;4472;52.092;9.820;2022-10-31T04:09:47;21.33;;;10.67;;
8871;SDS011;4472;52.092;9.820;2022-10-31T04:12:37;21.27;;;10.57;;
8871;SDS011;4472;52.092;9.820;2022-10-31T04:15:28;19.23;;;10.23;;
8871;SDS011;4472;52.092;9.820;2022-10-31T04:18:16;20.13;;;10.97;;
8871;SDS011;4472;52.092;9.820;2022-10-31T04:21:04;24.03;;;11.50;;
8871;SDS011;4472;52.092;9.820;2022-10-31T04:23:53;20.10;;;12.43;;
8871;SDS011;4472;52.092;9.820;2022-10-31T04:26:40;20.60;;;11.47;;
8871;SDS011;4472;52.092;9.820;2022-10-31T04:29:27;18.00;;;10.43;;
8871;SDS011;4472;52.092;9.820;2022-10-31T04:32:16;19.83;;;10.93;;
8871;SDS011;4472;52.092;9.820;2022-10-31T04:35:03;17.37;;;10.90;;
8871;SDS011;4472;52.092;9.820;2022-10-31T04:37:51;21.97;;;10.60;;
8871;SDS011;4472;52.092;9.820;2022-10-31T04:40:38;26.50;;;11.67;;
8871;SDS011;4472;52.092;9.820;2022-10-31T04:43:26;18.07;;;10.10;;
8871;SDS011;4472;52.092;9.820;2022-10-31T04:46:13;19.20;;;10.10;;
8871;SDS011;4472;52.092;9.820;2022-10-31T04:49:01;16.37;;;10.43;;
8871;SDS011;4472;52.092;9.820;2022-10-31T04:51:48;21.80;;;10.87;;
8871;SDS011;4472;52.092;9.820;2022-10-31T04:54:36;19.23;;;10.40;;
8871;SDS011;4472;52.092;9.820;2022-10-31T04:57:23;20.40;;;10.57;;
8871;SDS011;4472;52.092;9.820;2022-10-31T05:00:11;20.03;;;10.90;;
8871;SDS011;4472;52.092;9.820;2022-10-31T05:02:59;22.50;;;10.97;;
8871;SDS011;4472;52.092;9.820;2022-10-31T05:05:47;23.73;;;10.80;;
8871;SDS011;4472;52.092;9.820;2022-10-31T05:08:35;23.30;;;11.37;;
8871;SDS011;4472;52.092;9.820;2022-10-31T05:11:22;23.37;;;11.77;;
8871;SDS011;4472;52.092;9.820;2022-10-31T05:14:09;22.13;;;12.27;;
8871;SDS011;4472;52.092;9.820;2022-10-31T05:16:56;26.27;;;12.27;;
8871;SDS011;4472;52.092;9.820;2022-10-31T05:19:43;24.20;;;12.60;;
8871;SDS011;4472;52.092;9.820;2022-10-31T05:22:32;25.97;;;12.20;;
8871;SDS011;4472;52.092;9.820;2022-10-31T05:25:19;21.00;;;11.40;;
8871;SDS011;4472;52.092;9.820;2022-10-31T05:28:08;19.83;;;12.37;;
8871;SDS011;4472;52.092;9.820;2022-10-31T05:30:56;25.10;;;12.47;;
8871;SDS011;4472;52.092;9.820;2022-10-31T05:33:43;30.17;;;14.77;;
8871;SDS011;4472;52.092;9.820;2022-10-31T05:36:30;29.70;;;14.17;;
8871;SDS011;4472;52.092;9.820;2022-10-31T05:39:18;27.60;;;14.83;;
8871;SDS011;4472;52.092;9.820;2022-10-31T05:42:06;33.60;;;15.60;;
8871;SDS011;4472;52.092;9.820;2022-10-31T05:44:53;27.63;;;15.63;;
8871;SDS011;4472;52.092;9.820;2022-10-31T05:47:40;27.53;;;16.27;;
8871;SDS011;4472;52.092;9.820;2022-10-31T05:50:28;37.73;;;16.03;;
8871;SDS011;4472;52.092;9.820;2022-10-31T05:53:16;33.37;;;16.53;;
8871;SDS011;4472;52.092;9.820;2022-10-31T05:56:05;25.60;;;15.10;;
8871;SDS011;4472;52.092;9.820;2022-10-31T05:58:53;29.03;;;15.80;;
8871;SDS011;4472;52.092;9.820;2022-10-31T06:01:40;31.60;;;16.73;;
8871;SDS011;4472;52.092;9.820;2022-10-31T06:04:27;30.53;;;17.53;;
8871;SDS011;4472;52.092;9.820;2022-10-31T06:07:15;30.40;;;16.63;;
8871;SDS011;4472;52.092;9.820;2022-10-31T06:10:02;35.50;;;17.60;;
8871;SDS011;4472;52.092;9.820;2022-10-31T06:12:51;34.30;;;18.90;;
8871;SDS011;4472;52.092;9.820;2022-10-31T06:15:39;38.23;;;19.73;;
8871;SDS011;4472;52.092;9.820;2022-10-31T06:18:27;44.47;;;21.23;;
8871;SDS011;4472;52.092;9.820;2022-10-31T06:21:14;44.83;;;21.07;;
8871;SDS011;4472;52.092;9.820;2022-10-31T06:24:02;45.30;;;20.57;;
8871;SDS011;4472;52.092;9.820;2022-10-31T06:26:49;41.50;;;20.67;;
8871;SDS011;4472;52.092;9.820;2022-10-31T06:29:38;46.30;;;21.27;;
8871;SDS011;4472;52.092;9.820;2022-10-31T06:32:25;46.37;;;22.37;;
8871;SDS011;4472;52.092;9.820;2022-10-31T06:35:12;44.00;;;21.37;;
8871;SDS011;4472;52.092;9.820;2022-10-31T06:37:59;46.87;;;22.70;;
8871;SDS011;4472;52.092;9.820;2022-10-31T06:40:46;48.83;;;22.43;;
8871;SDS011;4472;52.092;9.820;2022-10-31T06:43:33;46.10;;;22.50;;
8871;SDS011;4472;52.092;9.820;2022-10-31T06:46:22;48.33;;;21.90;;
8871;SDS011;4472;52.092;9.820;2022-10-31T06:49:09;43.63;;;21.37;;
8871;SDS011;4472;52.092;9.820;2022-10-31T06:51:57;49.27;;;22.60;;
8871;SDS011;4472;52.092;9.820;2022-10-31T06:54:44;42.40;;;21.73;;
8871;SDS011;4472;52.092;9.820;2022-10-31T06:57:31;38.03;;;20.70;;
8871;SDS011;4472;52.092;9.820;2022-10-31T07:00:18;44.60;;;21.30;;
8871;SDS011;4472;52.092;9.820;2022-10-31T07:03:09;41.57;;;21.27;;
8871;SDS011;4472;52.092;9.820;2022-10-31T07:05:58;39.80;;;20.17;;
8871;SDS011;4472;52.092;9.820;2022-10-31T07:08:45;45.60;;;21.33;;
8871;SDS011;4472;52.092;9.820;2022-10-31T07:11:32;41.33;;;19.60;;
8871;SDS011;4472;52.092;9.820;2022-10-31T07:14:19;30.13;;;18.27;;
8871;SDS011;4472;52.092;9.820;2022-10-31T07:17:06;33.10;;;17.30;;
8871;SDS011;4472;52.092;9.820;2022-10-31T07:19:55;32.73;;;17.80;;
8871;SDS011;4472;52.092;9.820;2022-10-31T07:22:42;35.20;;;18.63;;
8871;SDS011;4472;52.092;9.820;2022-10-31T07:25:29;39.67;;;19.13;;
8871;SDS011;4472;52.092;9.820;2022-10-31T07:28:16;31.27;;;17.53;;
8871;SDS011;4472;52.092;9.820;2022-10-31T07:31:04;34.90;;;18.13;;
8871;SDS011;4472;52.092;9.820;2022-10-31T07:33:51;34.83;;;18.97;;
8871;SDS011;4472;52.092;9.820;2022-10-31T07:36:40;33.10;;;18.37;;
8871;SDS011;4472;52.092;9.820;2022-10-31T07:39:27;35.10;;;18.67;;
8871;SDS011;4472;52.092;9.820;2022-10-31T07:42:14;35.83;;;19.03;;
8871;SDS011;4472;52.092;9.820;2022-10-31T07:45:01;34.90;;;18.90;;
8871;SDS011;4472;52.092;9.820;2022-10-31T07:47:49;36.93;;;19.73;;
8871;SDS011;4472;52.092;9.820;2022-10-31T07:50:37;38.77;;;19.20;;
8871;SDS011;4472;52.092;9.820;2022-10-31T07:53:27;38.10;;;18.97;;
8871;SDS011;4472;52.092;9.820;2022-10-31T07:56:14;33.63;;;18.70;;
8871;SDS011;4472;52.092;9.820;2022-10-31T07:59:01;29.37;;;17.80;;
8871;SDS011;4472;52.092;9.820;2022-10-31T08:01:48;32.27;;;17.97;;
8871;SDS011;4472;52.092;9.820;2022-10-31T08:04:35;30.13;;;17.50;;
8871;SDS011;4472;52.092;9.820;2022-10-31T08:07:23;32.53;;;16.40;;
8871;SDS011;4472;52.092;9.820;2022-10-31T08:10:11;26.00;;;14.83;;
8871;SDS011;4472;52.092;9.820;2022-10-31T08:12:59;30.57;;;16.40;;
8871;SDS011;4472;52.092;9.820;2022-10-31T08:15:47;25.83;;;15.80;;
8871;SDS011;4472;52.092;9.820;2022-10-31T08:18:35;28.20;;;16.33;;
8871;SDS011;4472;52.092;9.820;2022-10-31T08:21:23;30.07;;;16.17;;
8871;SDS011;4472;52.092;9.820;2022-10-31T08:24:10;31.07;;;16.10;;
8871;SDS011;4472;52.092;9.820;2022-10-31T08:26:59;30.70;;;17.77;;
8871;SDS011;4472;52.092;9.820;2022-10-31T08:29:46;63.10;;;35.30;;
8871;SDS011;4472;52.092;9.820;2022-10-31T08:32:33;28.63;;;17.93;;
8871;SDS011;4472;52.092;9.820;2022-10-31T08:35:20;35.70;;;19.03;;
8871;SDS011;4472;52.092;9.820;2022-10-31T08:38:07;31.30;;;19.57;;
8871;SDS011;4472;52.092;9.820;2022-10-31T08:40:55;33.43;;;18.23;;
8871;SDS011;4472;52.092;9.820;2022-10-31T08:43:44;32.40;;;18.20;;
8871;SDS011;4472;52.092;9.820;2022-10-31T08:46:31;32.43;;;17.23;;
8871;SDS011;4472;52.092;9.820;2022-10-31T08:49:19;30.67;;;18.03;;
8871;SDS011;4472;52.092;9.820;2022-10-31T08:52:06;29.47;;;17.67;;
8871;SDS011;4472;52.092;9.820;2022-10-31T08:54:54;32.03;;;18.57;;
8871;SDS011;4472;52.092;9.820;2022-10-31T08:57:41;33.43;;;20.13;;
8871;SDS011;4472;52.092;9.820;2022-10-31T09:00:30;29.07;;;17.70;;
8871;SDS011;4472;52.092;9.820;2022-10-31T09:03:18;31.43;;;17.83;;
8871;SDS011;4472;52.092;9.820;2022-10-31T09:06:06;30.27;;;18.23;;
8871;SDS011;4472;52.092;9.820;2022-10-31T09:08:54;32.33;;;17.90;;
8871;SDS011;4472;52.092;9.820;2022-10-31T09:11:41;32.03;;;18.83;;
8871;SDS011;4472;52.092;9.820;2022-10-31T09:14:28;27.80;;;16.90;;
8871;SDS011;4472;52.092;9.820;2022-10-31T09:17:17;31.77;;;17.80;;
8871;SDS011;4472;52.092;9.820;2022-10-31T09:20:04;33.67;;;17.97;;
8871;SDS011;4472;52.092;9.820;2022-10-31T09:22:55;29.87;;;17.23;;
8871;SDS011;4472;52.092;9.820;2022-10-31T09:25:42;33.33;;;18.03;;
8871;SDS011;4472;52.092;9.820;2022-10-31T09:28:30;35.43;;;19.03;;
8871;SDS011;4472;52.092;9.820;2022-10-31T09:31:18;29.00;;;16.77;;
8871;SDS011;4472;52.092;9.820;2022-10-31T09:34:06;33.20;;;18.23;;
8871;SDS011;4472;52.092;9.820;2022-10-31T09:36:53;36.73;;;19.33;;
8871;SDS011;4472;52.092;9.820;2022-10-31T09:39:40;32.03;;;18.90;;
8871;SDS011;4472;52.092;9.820;2022-10-31T09:42:43;29.90;;;18.60;;
8871;SDS011;4472;52.092;9.820;2022-10-31T09:45:39;31.13;;;18.37;;
8871;SDS011;4472;52.092;9.820;2022-10-31T09:48:45;30.77;;;17.33;;
8871;SDS011;4472;52.092;9.820;2022-10-31T09:51:44;28.87;;;17.17;;
8871;SDS011;4472;52.092;9.820;2022-10-31T09:54:38;30.27;;;18.30;;
8871;SDS011;4472;52.092;9.820;2022-10-31T09:57:30;32.57;;;17.93;;
8871;SDS011;4472;52.092;9.820;2022-10-31T10:00:20;28.53;;;17.87;;
8871;SDS011;4472;52.092;9.820;2022-10-31T10:03:10;26.87;;;16.73;;
8871;SDS011;4472;52.092;9.820;2022-10-31T10:06:09;29.63;;;17.20;;
8871;SDS011;4472;52.092;9.820;2022-10-31T10:09:01;29.40;;;16.83;;
8871;SDS011;4472;52.092;9.820;2022-10-31T10:11:51;28.40;;;17.87;;
8871;SDS011;4472;52.092;9.820;2022-10-31T10:14:55;31.63;;;17.53;;
8871;SDS011;4472;52.092;9.820;2022-10-31T10:17:46;29.43;;;17.43;;
8871;SDS011;4472;52.092;9.820;2022-10-31T10:20:49;34.87;;;17.17;;
8871;SDS011;4472;52.092;9.820;2022-10-31T10:23:50;26.30;;;15.33;;
8871;SDS011;4472;52.092;9.820;2022-10-31T10:26:49;31.97;;;15.03;;
8871;SDS011;4472;52.092;9.820;2022-10-31T10:29:40;32.77;;;15.23;;
8871;SDS011;4472;52.092;9.820;2022-10-31T10:32:37;26.70;;;15.73;;
8871;SDS011;4472;52.092;9.820;2022-10-31T10:35:30;24.33;;;13.13;;
8871;SDS011;4472;52.092;9.820;2022-10-31T10:38:22;23.47;;;13.13;;
8871;SDS011;4472;52.092;9.820;2022-10-31T10:41:14;25.63;;;13.67;;
8871;SDS011;4472;52.092;9.820;2022-10-31T10:44:07;24.47;;;12.97;;
8871;SDS011;4472;52.092;9.820;2022-10-31T10:46:56;17.40;;;10.73;;
8871;SDS011;4472;52.092;9.820;2022-10-31T10:50:05;23.13;;;11.80;;
8871;SDS011;4472;52.092;9.820;2022-10-31T10:53:05;19.43;;;10.63;;
8871;SDS011;4472;52.092;9.820;2022-10-31T10:56:10;17.63;;;10.03;;
8871;SDS011;4472;52.092;9.820;2022-10-31T10:59:01;16.27;;;9.40;;
8871;SDS011;4472;52.092;9.820;2022-10-31T11:01:51;14.67;;;8.40;;
8871;SDS011;4472;52.092;9.820;2022-10-31T11:04:38;19.13;;;10.17;;
8871;SDS011;4472;52.092;9.820;2022-10-31T11:07:36;18.07;;;9.63;;
8871;SDS011;4472;52.092;9.820;2022-10-31T11:10:24;18.57;;;9.67;;
8871;SDS011;4472;52.092;9.820;2022-10-31T11:13:20;17.77;;;10.07;;
8871;SDS011;4472;52.092;9.820;2022-10-31T11:16:10;17.17;;;9.63;;
8871;SDS011;4472;52.092;9.820;2022-10-31T11:19:06;17.57;;;9.50;;
8871;SDS011;4472;52.092;9.820;2022-10-31T11:22:05;16.60;;;9.63;;
8871;SDS011;4472;52.092;9.820;2022-10-31T11:24:53;20.03;;;9.37;;
8871;SDS011;4472;52.092;9.820;2022-10-31T11:27:40;18.80;;;10.43;;
8871;SDS011;4472;52.092;9.820;2022-10-31T11:30:27;17.87;;;9.83;;
8871;SDS011;4472;52.092;9.820;2022-10-31T11:33:17;13.57;;;9.13;;
8871;SDS011;4472;52.092;9.820;2022-10-31T11:36:14;18.27;;;8.97;;
8871;SDS011;4472;52.092;9.820;2022-10-31T11:39:05;21.83;;;8.73;;
8871;SDS011;4472;52.092;9.820;2022-10-31T11:42:02;19.07;;;7.80;;
8871;SDS011;4472;52.092;9.820;2022-10-31T11:44:49;20.67;;;10.23;;
8871;SDS011;4472;52.092;9.820;2022-10-31T11:47:40;22.47;;;11.20;;
8871;SDS011;4472;52.092;9.820;2022-10-31T11:50:31;17.87;;;11.10;;
8871;SDS011;4472;52.092;9.820;2022-10-31T11:53:24;17.07;;;10.03;;
8871;SDS011;4472;52.092;9.820;2022-10-31T11:56:14;18.87;;;10.43;;
8871;SDS011;4472;52.092;9.820;2022-10-31T11:59:03;15.83;;;8.47;;
8871;SDS011;4472;52.092;9.820;2022-10-31T12:01:52;13.57;;;8.30;;
8871;SDS011;4472;52.092;9.820;2022-10-31T12:04:41;12.67;;;7.20;;
8871;SDS011;4472;52.092;9.820;2022-10-31T12:07:33;15.63;;;7.50;;
8871;SDS011;4472;52.092;9.820;2022-10-31T12:10:21;16.13;;;7.67;;
8871;SDS011;4472;52.092;9.820;2022-10-31T12:13:18;20.20;;;8.30;;
8871;SDS011;4472;52.092;9.820;2022-10-31T12:16:17;17.30;;;9.03;;
8871;SDS011;4472;52.092;9.820;2022-10-31T12:19:11;13.00;;;7.63;;
8871;SDS011;4472;52.092;9.820;2022-10-31T12:22:10;22.07;;;8.20;;
8871;SDS011;4472;52.092;9.820;2022-10-31T12:25:08;14.90;;;8.00;;
8871;SDS011;4472;52.092;9.820;2022-10-31T12:28:19;14.40;;;7.93;;
8871;SDS011;4472;52.092;9.820;2022-10-31T12:31:27;17.13;;;8.17;;
8871;SDS011;4472;52.092;9.820;2022-10-31T12:34:27;15.33;;;8.33;;
8871;SDS011;4472;52.092;9.820;2022-10-31T12:37:41;18.50;;;8.90;;
8871;SDS011;4472;52.092;9.820;2022-10-31T12:40:43;12.83;;;7.77;;
8871;SDS011;4472;52.092;9.820;2022-10-31T12:43:42;14.30;;;8.57;;
8871;SDS011;4472;52.092;9.820;2022-10-31T12:46:46;17.47;;;8.50;;
8871;SDS011;4472;52.092;9.820;2022-10-31T12:49:46;14.40;;;8.53;;
8871;SDS011;4472;52.092;9.820;2022-10-31T12:52:44;17.53;;;9.30;;
8871;SDS011;4472;52.092;9.820;2022-10-31T12:55:47;15.43;;;7.83;;
8871;SDS011;4472;52.092;9.820;2022-10-31T12:58:43;14.00;;;9.20;;
8871;SDS011;4472;52.092;9.820;2022-10-31T13:01:34;15.40;;;8.70;;
8871;SDS011;4472;52.092;9.820;2022-10-31T13:04:28;19.17;;;9.20;;
8871;SDS011;4472;52.092;9.820;2022-10-31T13:07:27;18.80;;;8.93;;
8871;SDS011;4472;52.092;9.820;2022-10-31T13:10:19;15.97;;;9.13;;
8871;SDS011;4472;52.092;9.820;2022-10-31T13:13:12;19.43;;;8.90;;
8871;SDS011;4472;52.092;9.820;2022-10-31T13:16:11;16.33;;;9.23;;
8871;SDS011;4472;52.092;9.820;2022-10-31T13:19:01;15.90;;;8.53;;
8871;SDS011;4472;52.092;9.820;2022-10-31T13:21:57;17.40;;;8.63;;
8871;SDS011;4472;52.092;9.820;2022-10-31T13:24:52;18.00;;;8.43;;
8871;SDS011;4472;52.092;9.820;2022-10-31T13:27:45;17.23;;;9.17;;
8871;SDS011;4472;52.092;9.820;2022-10-31T13:30:38;13.70;;;8.93;;
8871;SDS011;4472;52.092;9.820;2022-10-31T13:33:29;17.53;;;8.47;;
8871;SDS011;4472;52.092;9.820;2022-10-31T13:36:21;16.87;;;8.07;;
8871;SDS011;4472;52.092;9.820;2022-10-31T13:39:18;15.20;;;8.60;;
8871;SDS011;4472;52.092;9.820;2022-10-31T13:42:12;14.90;;;8.97;;
8871;SDS011;4472;52.092;9.820;2022-10-31T13:45:11;14.77;;;8.90;;
8871;SDS011;4472;52.092;9.820;2022-10-31T13:48:16;14.20;;;8.10;;
8871;SDS011;4472;52.092;9.820;2022-10-31T13:51:06;14.50;;;7.97;;
8871;SDS011;4472;52.092;9.820;2022-10-31T13:53:58;14.57;;;8.23;;
8871;SDS011;4472;52.092;9.820;2022-10-31T13:56:48;16.87;;;8.00;;
8871;SDS011;4472;52.092;9.820;2022-10-31T13:59:36;11.97;;;7.20;;
8871;SDS011;4472;52.092;9.820;2022-10-31T14:02:25;17.90;;;8.53;;
8871;SDS011;4472;52.092;9.820;2022-10-31T14:05:21;15.03;;;8.57;;
8871;SDS011;4472;52.092;9.820;2022-10-31T14:08:15;15.77;;;8.40;;
8871;SDS011;4472;52.092;9.820;2022-10-31T14:11:06;13.50;;;7.93;;
8871;SDS011;4472;52.092;9.820;2022-10-31T14:13:55;16.03;;;8.50;;
8871;SDS011;4472;52.092;9.820;2022-10-31T14:16:44;13.40;;;7.17;;
8871;SDS011;4472;52.092;9.820;2022-10-31T14:19:33;11.17;;;6.10;;
8871;SDS011;4472;52.092;9.820;2022-10-31T14:22:21;9.60;;;5.70;;
8871;SDS011;4472;52.092;9.820;2022-10-31T14:25:25;14.30;;;6.13;;
8871;SDS011;4472;52.092;9.820;2022-10-31T14:28:18;10.27;;;5.27;;
8871;SDS011;4472;52.092;9.820;2022-10-31T14:31:21;9.43;;;5.40;;
8871;SDS011;4472;52.092;9.820;2022-10-31T14:34:21;8.13;;;5.47;;
8871;SDS011;4472;52.092;9.820;2022-10-31T14:37:23;10.60;;;5.80;;
8871;SDS011;4472;52.092;9.820;2022-10-31T14:40:24;12.77;;;6.20;;
8871;SDS011;4472;52.092;9.820;2022-10-31T14:46:37;10.97;;;6.20;;
8871;SDS011;4472;52.092;9.820;2022-10-31T14:49:36;12.57;;;6.37;;
8871;SDS011;4472;52.092;9.820;2022-10-31T14:52:48;9.67;;;6.50;;
8871;SDS011;4472;52.092;9.820;2022-10-31T14:55:39;10.70;;;6.23;;
8871;SDS011;4472;52.092;9.820;2022-10-31T14:58:32;12.27;;;7.00;;
8871;SDS011;4472;52.092;9.820;2022-10-31T15:01:24;12.10;;;6.70;;
8871;SDS011;4472;52.092;9.820;2022-10-31T15:04:15;12.40;;;6.23;;
8871;SDS011;4472;52.092;9.820;2022-10-31T15:07:07;12.97;;;6.73;;
8871;SDS011;4472;52.092;9.820;2022-10-31T15:10:00;14.57;;;7.07;;
8871;SDS011;4472;52.092;9.820;2022-10-31T15:12:49;10.50;;;7.13;;
8871;SDS011;4472;52.092;9.820;2022-10-31T15:15:37;10.57;;;7.43;;
8871;SDS011;4472;52.092;9.820;2022-10-31T15:18:26;15.23;;;7.70;;
8871;SDS011;4472;52.092;9.820;2022-10-31T15:21:15;14.93;;;7.53;;
8871;SDS011;4472;52.092;9.820;2022-10-31T15:24:03;17.77;;;8.17;;
8871;SDS011;4472;52.092;9.820;2022-10-31T15:26:52;15.63;;;8.33;;
8871;SDS011;4472;52.092;9.820;2022-10-31T15:29:47;11.93;;;8.20;;
8871;SDS011;4472;52.092;9.820;2022-10-31T15:32:35;18.43;;;8.50;;
8871;SDS011;4472;52.092;9.820;2022-10-31T15:35:24;16.57;;;8.27;;
8871;SDS011;4472;52.092;9.820;2022-10-31T15:38:12;30.00;;;18.63;;
8871;SDS011;4472;52.092;9.820;2022-10-31T15:41:00;26.53;;;11.93;;
8871;SDS011;4472;52.092;9.820;2022-10-31T15:43:51;27.57;;;15.63;;
8871;SDS011;4472;52.092;9.820;2022-10-31T15:46:38;20.33;;;11.80;;
8871;SDS011;4472;52.092;9.820;2022-10-31T15:49:27;17.07;;;10.00;;
8871;SDS011;4472;52.092;9.820;2022-10-31T15:52:31;16.40;;;9.83;;
8871;SDS011;4472;52.092;9.820;2022-10-31T15:55:21;51.17;;;34.10;;
8871;SDS011;4472;52.092;9.820;2022-10-31T15:58:11;19.77;;;11.60;;
8871;SDS011;4472;52.092;9.820;2022-10-31T16:01:03;34.30;;;20.33;;
8871;SDS011;4472;52.092;9.820;2022-10-31T16:03:57;16.30;;;8.30;;
8871;SDS011;4472;52.092;9.820;2022-10-31T16:06:51;14.27;;;8.77;;
8871;SDS011;4472;52.092;9.820;2022-10-31T16:09:50;18.77;;;8.70;;
8871;SDS011;4472;52.092;9.820;2022-10-31T16:12:42;16.50;;;8.63;;
8871;SDS011;4472;52.092;9.820;2022-10-31T16:15:31;19.80;;;10.03;;
8871;SDS011;4472;52.092;9.820;2022-10-31T16:18:22;15.07;;;7.97;;
8871;SDS011;4472;52.092;9.820;2022-10-31T16:21:10;17.03;;;8.43;;
8871;SDS011;4472;52.092;9.820;2022-10-31T16:23:59;12.90;;;7.63;;
8871;SDS011;4472;52.092;9.820;2022-10-31T16:26:48;13.07;;;7.70;;
8871;SDS011;4472;52.092;9.820;2022-10-31T16:29:37;12.77;;;7.60;;
8871;SDS011;4472;52.092;9.820;2022-10-31T16:32:28;16.00;;;8.17;;
8871;SDS011;4472;52.092;9.820;2022-10-31T16:35:23;12.80;;;7.53;;
8871;SDS011;4472;52.092;9.820;2022-10-31T16:38:12;14.00;;;7.20;;
8871;SDS011;4472;52.092;9.820;2022-10-31T16:40:59;13.70;;;7.87;;
8871;SDS011;4472;52.092;9.820;2022-10-31T16:43:48;12.60;;;7.10;;
8871;SDS011;4472;52.092;9.820;2022-10-31T16:46:35;17.07;;;8.30;;
8871;SDS011;4472;52.092;9.820;2022-10-31T16:49:23;16.67;;;8.40;;
8871;SDS011;4472;52.092;9.820;2022-10-31T16:52:11;16.87;;;8.00;;
8871;SDS011;4472;52.092;9.820;2022-10-31T16:54:59;20.07;;;8.87;;
8871;SDS011;4472;52.092;9.820;2022-10-31T16:57:47;17.77;;;8.67;;
8871;SDS011;4472;52.092;9.820;2022-10-31T17:00:37;17.23;;;9.70;;
8871;SDS011;4472;52.092;9.820;2022-10-31T17:03:24;18.93;;;9.10;;
8871;SDS011;4472;52.092;9.820;2022-10-31T17:06:12;20.30;;;9.80;;
8871;SDS011;4472;52.092;9.820;2022-10-31T17:09:01;17.60;;;10.37;;
8871;SDS011;4472;52.092;9.820;2022-10-31T17:11:49;20.17;;;10.47;;
8871;SDS011;4472;52.092;9.820;2022-10-31T17:14:39;16.33;;;10.53;;
8871;SDS011;4472;52.092;9.820;2022-10-31T17:17:26;20.50;;;10.87;;
8871;SDS011;4472;52.092;9.820;2022-10-31T17:20:18;20.37;;;10.40;;
8871;SDS011;4472;52.092;9.820;2022-10-31T17:23:08;19.50;;;10.77;;